createdAt,value
2019-04-22T00:01:31.177Z,4.40
2019-04-22T00:05:48.367Z,4.47
2019-04-22T00:14:00.848Z,3.67
2019-04-22T00:18:37.708Z,4.13
2019-04-22T00:22:15.259Z,4.90
2019-04-22T00:26:16.113Z,4.70
2019-04-22T00:30:34.282Z,3.20
2019-04-22T00:34:53.743Z,4.53
2019-04-22T00:39:03.366Z,3.58
2019-04-22T00:42:58.384Z,3.83
2019-04-22T00:47:07.364Z,4.30
2019-04-22T00:51:12.426Z,5.03
2019-04-22T00:55:23.444Z,4.40
2019-04-22T00:59:20.101Z,5.03
2019-04-22T01:03:25.936Z,4.53
2019-04-22T01:07:32.141Z,3.47
2019-04-22T01:11:47.195Z,4.12
2019-04-22T01:19:51.239Z,3.47
2019-04-22T01:23:47.649Z,3.90
2019-04-22T01:27:46.241Z,3.60
2019-04-22T01:31:37.111Z,3.37
2019-04-22T01:35:58.443Z,5.00
2019-04-22T01:40:12.627Z,3.93
2019-04-22T01:44:21.605Z,4.77
2019-04-22T01:48:17.976Z,3.63
2019-04-22T01:52:17.032Z,4.40
2019-04-22T01:56:25.213Z,4.23
2019-04-22T02:00:17.379Z,4.60
2019-04-22T02:04:44.556Z,3.80
2019-04-22T02:08:45.230Z,3.65
2019-04-22T02:12:43.146Z,4.10
2019-04-22T02:16:41.299Z,3.27
2019-04-22T02:20:45.476Z,4.20
2019-04-22T02:24:50.923Z,3.12
2019-04-22T02:29:07.892Z,3.97
2019-04-22T02:33:30.790Z,4.20
2019-04-22T02:37:04.841Z,4.00
2019-04-22T02:45:10.040Z,3.57
2019-04-22T02:49:25.030Z,3.40
2019-04-22T02:53:44.507Z,4.40
2019-04-22T02:57:31.892Z,3.50
2019-04-22T03:01:29.806Z,4.30
2019-04-22T03:05:37.031Z,4.17
2019-04-22T03:09:38.550Z,4.17
2019-04-22T03:13:46.974Z,3.33
2019-04-22T03:17:47.337Z,5.70
2019-04-22T03:21:46.559Z,4.95
2019-04-22T03:30:41.607Z,3.50
2019-04-22T03:34:55.455Z,4.10
2019-04-22T03:38:32.864Z,5.08
2019-04-22T03:42:09.944Z,3.80
2019-04-22T03:46:32.579Z,3.20
2019-04-22T03:50:25.789Z,4.70
2019-04-22T03:58:42.932Z,4.30
2019-04-22T04:07:02.033Z,4.10
2019-04-22T04:14:58.087Z,4.93
2019-04-22T04:19:07.168Z,4.78
2019-04-22T04:23:24.271Z,3.40
2019-04-22T04:43:29.980Z,5.50
2019-04-22T04:47:44.021Z,4.90
2019-04-22T04:55:43.618Z,4.30
2019-04-22T05:00:11.172Z,4.15
2019-04-22T05:03:48.956Z,4.73
2019-04-22T05:07:48.475Z,5.17
2019-04-22T05:16:10.725Z,3.50
2019-04-22T05:19:57.398Z,5.50
2019-04-22T05:24:07.992Z,4.80
2019-04-22T05:27:58.973Z,3.63
2019-04-22T05:32:04.309Z,4.13
2019-04-22T05:36:10.561Z,4.90
2019-04-22T05:40:16.370Z,5.70
2019-04-22T05:44:20.742Z,5.17
2019-04-22T05:48:18.845Z,5.83
2019-04-22T05:52:20.163Z,4.03
2019-04-22T05:56:32.744Z,5.07
2019-04-22T06:01:01.943Z,5.40
2019-04-22T06:04:29.409Z,4.73
2019-04-22T06:08:42.467Z,4.17
2019-04-22T06:12:41.749Z,3.95
2019-04-22T06:16:53.196Z,4.37
2019-04-22T06:25:00.981Z,4.17
2019-04-22T06:29:10.630Z,4.63
2019-04-22T06:33:15.192Z,4.10
2019-04-22T06:37:20.623Z,4.30
2019-04-22T06:41:21.316Z,4.53
2019-04-22T06:45:23.448Z,4.63
2019-04-22T06:49:31.914Z,4.33
2019-04-22T06:53:31.371Z,4.50
2019-04-22T06:57:30.534Z,4.07
2019-04-22T07:01:43.251Z,3.17
2019-04-22T07:05:43.815Z,4.30
2019-04-22T07:09:48.702Z,3.90
2019-04-22T07:13:49.093Z,3.67
2019-04-22T07:17:58.287Z,3.63
2019-04-22T07:21:57.683Z,3.70
2019-04-22T07:26:06.053Z,3.93
2019-04-22T07:30:09.403Z,4.10
2019-04-22T07:34:16.581Z,3.67
2019-04-22T07:38:12.501Z,4.27
2019-04-22T07:42:17.136Z,3.60
2019-04-22T07:46:13.524Z,4.40
2019-04-22T07:54:22.084Z,3.90
2019-04-22T07:58:34.084Z,3.60
2019-04-22T08:02:37.930Z,4.87
2019-04-22T08:06:43.775Z,3.70
2019-04-22T08:10:52.272Z,3.77
2019-04-22T08:14:49.961Z,3.47
2019-04-22T08:18:45.660Z,4.10
2019-04-22T08:23:02.923Z,3.70
2019-04-22T08:26:59.300Z,3.40
2019-04-22T08:30:59.686Z,3.80
2019-04-22T08:35:27.922Z,3.90
2019-04-22T08:39:21.746Z,4.03
2019-04-22T08:43:34.116Z,3.27
2019-04-22T08:47:30.931Z,3.40
2019-04-22T08:51:25.429Z,3.50
2019-04-22T08:55:40.443Z,3.90
2019-04-22T08:59:36.929Z,3.90
2019-04-22T09:03:48.419Z,3.37
2019-04-22T09:07:46.602Z,3.92
2019-04-22T09:11:55.988Z,3.50
2019-04-22T09:15:49.402Z,4.40
2019-04-22T09:20:00.295Z,3.93
2019-04-22T09:24:08.064Z,4.20
2019-04-22T09:28:05.764Z,3.60
2019-04-22T09:32:14.862Z,3.70
2019-04-22T09:36:16.809Z,3.90
2019-04-22T09:40:31.523Z,3.97
2019-04-22T09:44:16.355Z,3.90
2019-04-22T09:48:27.793Z,3.77
2019-04-22T09:52:26.260Z,3.60
2019-04-22T09:56:32.170Z,3.70
2019-04-22T10:00:50.092Z,3.60
2019-04-22T10:04:40.134Z,3.70
2019-04-22T10:13:17.376Z,3.63
2019-04-22T10:17:15.637Z,3.60
2019-04-22T10:21:18.952Z,3.40
2019-04-22T10:25:16.334Z,3.30
2019-04-22T10:29:43.593Z,3.30
2019-04-22T10:33:22.432Z,3.30
2019-04-22T10:37:10.909Z,3.40
2019-04-22T10:41:08.379Z,2.90
2019-04-22T10:45:12.588Z,3.10
2019-04-22T10:49:15.986Z,3.00
2019-04-22T10:53:19.871Z,3.20
2019-04-22T10:57:22.109Z,3.60
2019-04-22T11:01:25.537Z,3.40
2019-04-22T11:05:28.262Z,3.37
2019-04-22T11:09:31.047Z,3.13
2019-04-22T11:13:33.806Z,3.47
2019-04-22T11:17:35.785Z,3.00
2019-04-22T11:21:37.923Z,2.93
2019-04-22T11:25:41.326Z,3.00
2019-04-22T11:29:43.832Z,3.10
2019-04-22T11:33:45.728Z,3.17
2019-04-22T11:37:48.665Z,2.60
2019-04-22T11:41:51.818Z,3.00
2019-04-22T11:45:55.312Z,2.93
2019-04-22T11:49:57.765Z,2.87
2019-04-22T11:54:01.077Z,2.87
2019-04-22T11:58:03.337Z,2.60
2019-04-22T12:02:06.727Z,2.55
2019-04-22T12:06:10.190Z,2.77
2019-04-22T12:10:24.650Z,2.78
2019-04-22T12:14:18.176Z,2.67
2019-04-22T12:18:21.195Z,2.80
2019-04-22T12:22:25.106Z,2.50
2019-04-22T12:26:28.575Z,2.92
2019-04-22T12:30:30.897Z,2.67
2019-04-22T12:34:33.336Z,2.90
2019-04-22T12:38:35.679Z,3.02
2019-04-22T12:42:37.674Z,3.10
2019-04-22T12:46:39.942Z,3.42
2019-04-22T12:50:45.627Z,2.95
2019-04-22T12:54:46.836Z,2.67
2019-04-22T12:58:49.843Z,2.90
2019-04-22T13:02:53.083Z,2.90
2019-04-22T13:06:55.556Z,2.90
2019-04-22T13:11:05.787Z,2.87
2019-04-22T13:15:04.740Z,2.83
2019-04-22T13:19:11.242Z,2.72
2019-04-22T13:23:13.843Z,3.10
2019-04-22T13:27:17.211Z,2.70
2019-04-22T13:31:20.761Z,2.80
2019-04-22T13:35:24.648Z,2.60
2019-04-22T13:39:27.230Z,2.55
2019-04-22T13:43:29.280Z,2.58
2019-04-22T13:47:46.464Z,2.60
2019-04-22T13:56:03.532Z,2.98
2019-04-22T13:59:49.946Z,2.80
2019-04-22T14:03:48.933Z,2.80
2019-04-22T14:07:53.709Z,2.70
2019-04-22T14:12:01.489Z,2.70
2019-04-22T14:15:59.415Z,2.87
2019-04-22T14:20:02.615Z,2.70
2019-04-22T14:24:05.025Z,2.70
2019-04-22T14:28:13.119Z,2.20
2019-04-22T14:32:18.854Z,2.70
2019-04-22T14:36:15.363Z,2.80
2019-04-22T14:40:18.758Z,2.70
2019-04-22T14:45:16.905Z,2.70
2019-04-22T14:48:49.668Z,2.62
2019-04-22T14:52:50.808Z,2.72
2019-04-22T14:56:34.201Z,2.62
2019-04-22T15:00:36.206Z,2.65
2019-04-22T15:04:39.282Z,2.67
2019-04-22T15:08:42.623Z,2.85
2019-04-22T15:12:49.688Z,3.08
2019-04-22T15:17:06.902Z,2.60
2019-04-22T15:21:10.998Z,2.77
2019-04-22T15:25:14.456Z,2.50
2019-04-22T15:29:17.597Z,3.00
2019-04-22T15:33:19.583Z,2.62
2019-04-22T15:37:22.310Z,3.08
2019-04-22T15:41:25.290Z,3.10
2019-04-22T15:45:28.584Z,3.20
2019-04-22T15:49:32.007Z,2.90
2019-04-22T15:53:34.095Z,2.70
2019-04-22T15:57:37.917Z,3.13
2019-04-22T16:01:41.479Z,3.03
2019-04-22T16:05:44.128Z,3.03
2019-04-22T16:09:47.731Z,2.90
2019-04-22T16:13:50.544Z,3.10
2019-04-22T16:17:53.081Z,2.40
2019-04-22T16:22:01.198Z,2.77
2019-04-22T16:26:03.372Z,2.97
2019-04-22T16:30:07.745Z,2.80
2019-04-22T16:34:11.361Z,3.30
2019-04-22T16:38:14.918Z,2.90
2019-04-22T16:42:27.901Z,2.70
2019-04-22T16:46:21.350Z,2.77
2019-04-22T16:50:23.394Z,3.07
2019-04-22T16:54:26.303Z,3.08
2019-04-22T16:58:28.936Z,3.10
2019-04-22T17:02:32.934Z,3.10
2019-04-22T17:06:37.324Z,3.80
2019-04-22T17:10:39.736Z,3.33
2019-04-22T17:14:49.864Z,4.00
2019-04-22T17:18:47.123Z,3.60
2019-04-22T17:22:49.455Z,3.30
2019-04-22T17:26:52.588Z,3.60
2019-04-22T17:30:54.640Z,3.30
2019-04-22T17:34:57.384Z,2.90
2019-04-22T17:39:14.526Z,2.70
2019-04-22T17:43:36.478Z,3.10
2019-04-22T17:47:30.247Z,2.47
2019-04-22T17:51:41.117Z,2.52
2019-04-22T17:55:54.095Z,2.80
2019-04-22T17:59:41.836Z,2.75
2019-04-22T18:03:33.860Z,2.60
2019-04-22T18:07:54.517Z,2.60
2019-04-22T18:12:01.103Z,2.33
2019-04-22T18:16:03.940Z,2.50
2019-04-22T18:19:58.352Z,2.63
2019-04-22T18:24:00.506Z,2.53
2019-04-22T18:28:17.649Z,2.80
2019-04-22T18:32:07.200Z,3.03
2019-04-22T18:36:14.030Z,2.97
2019-04-22T18:40:24.450Z,3.07
2019-04-22T18:44:27.205Z,3.50
2019-04-22T18:48:30.077Z,3.10
2019-04-22T18:52:47.003Z,2.83
2019-04-22T18:56:52.443Z,2.63
2019-04-22T19:00:46.076Z,2.57
2019-04-22T19:04:56.081Z,3.00
2019-04-22T19:09:17.108Z,2.47
2019-04-22T19:21:44.572Z,3.10
2019-04-22T19:25:23.957Z,3.23
2019-04-22T19:29:39.733Z,3.02
2019-04-22T19:33:39.912Z,3.12
2019-04-22T19:37:39.824Z,3.00
2019-04-22T19:41:53.676Z,2.97
2019-04-22T19:45:50.237Z,3.03
2019-04-22T19:49:58.117Z,3.00
2019-04-22T19:53:56.092Z,3.10
2019-04-22T19:57:54.299Z,2.90
2019-04-22T20:02:04.372Z,2.83
2019-04-22T20:06:26.869Z,3.33
2019-04-22T20:10:29.629Z,3.13
2019-04-22T20:14:41.875Z,3.13
2019-04-22T20:18:48.659Z,3.52
2019-04-22T20:22:43.170Z,3.00
2019-04-22T20:26:59.400Z,3.00
2019-04-22T20:30:55.942Z,3.30
2019-04-22T20:35:04.081Z,3.60
2019-04-22T20:38:59.414Z,3.40
2019-04-22T20:43:10.475Z,3.40
2019-04-22T20:47:09.061Z,3.70
2019-04-22T20:51:12.469Z,3.83
2019-04-22T20:55:13.094Z,3.33
2019-04-22T20:59:18.056Z,3.90
2019-04-22T21:03:15.996Z,3.37
2019-04-22T21:07:25.769Z,3.97
2019-04-22T21:11:29.997Z,3.50
2019-04-22T21:15:47.258Z,4.35
2019-04-22T21:19:47.914Z,4.05
2019-04-22T21:23:36.606Z,4.20
2019-04-22T21:27:52.575Z,4.20
2019-04-22T21:31:52.733Z,4.20
2019-04-22T21:36:12.155Z,3.60
2019-04-22T21:39:51.920Z,4.73
2019-04-22T21:44:05.514Z,5.10
2019-04-22T21:48:15.492Z,4.67
2019-04-22T21:52:29.395Z,4.93
2019-04-22T21:56:56.612Z,4.70
2019-04-22T22:00:57.786Z,5.20
2019-04-22T22:04:54.257Z,4.60
2019-04-22T22:09:02.455Z,5.10
2019-04-22T22:13:06.690Z,5.30
2019-04-22T22:17:01.607Z,5.67
2019-04-22T22:21:38.206Z,5.60
2019-04-22T22:25:20.140Z,5.20
2019-04-22T22:33:26.352Z,5.17
2019-04-22T22:37:18.455Z,4.95
2019-04-22T22:41:12.123Z,5.33
2019-04-22T22:45:26.163Z,5.97
2019-04-22T22:49:42.775Z,5.80
2019-04-22T22:53:46.326Z,5.60
2019-04-22T22:57:56.622Z,5.83
2019-04-22T23:01:52.249Z,5.62
2019-04-22T23:05:57.225Z,5.07
2019-04-22T23:10:00.250Z,5.33
2019-04-22T23:14:05.319Z,5.50
2019-04-22T23:17:45.758Z,5.63
2019-04-22T23:21:52.657Z,5.67
2019-04-22T23:26:10.317Z,5.70
2019-04-22T23:30:05.353Z,5.27
2019-04-22T23:34:17.343Z,5.77
2019-04-22T23:38:21.002Z,4.50
2019-04-22T23:42:27.262Z,5.50
2019-04-22T23:46:30.405Z,5.90
2019-04-22T23:50:37.812Z,5.87
2019-04-22T23:54:49.650Z,5.47
